Time;durP1;ratioP1;P1;durP2;ratioP2;P2;SDS_P1;SDS_P2;PMS_P1;PMS_P2;Temp;Humidity;BMP_temperature;BMP_pressure;BME280_temperature;BME280_humidity;BME280_pressure;Samples;Min_cycle;Max_cycle;Signal;HPM_P1;HPM_P2
2023/12/01 00:01:48;;;;;;;96.23;42.70;;;;;;;;;;5037000;28;20253;-70
2023/12/01 00:04:14;;;;;;;94.27;42.43;;;;;;;;;;5037070;28;20175;-70
2023/12/01 00:06:40;;;;;;;91.47;41.13;;;;;;;;;;5036919;28;20175;-70
2023/12/01 00:09:05;;;;;;;89.53;40.90;;;;;;;;;;5035896;28;20598;-70
2023/12/01 00:11:31;;;;;;;94.00;42.03;;;;;;;;;;5036662;28;20621;-70
2023/12/01 00:13:57;;;;;;;97.03;41.57;;;;;;;;;;5037126;28;20514;-69
2023/12/01 00:16:23;;;;;;;85.87;41.13;;;;;;;;;;5037211;28;20225;-69
2023/12/01 00:18:49;;;;;;;91.37;44.03;;;;;;;;;;5035662;28;20183;-69
2023/12/01 00:21:15;;;;;;;88.63;41.13;;;;;;;;;;5037171;28;20202;-69
2023/12/01 00:23:41;;;;;;;81.87;40.57;;;;;;;;;;5036776;28;20195;-69
2023/12/01 00:26:07;;;;;;;80.13;38.33;;;;;;;;;;5036942;28;20421;-69
2023/12/01 00:28:35;;;;;;;76.23;37.17;;;;;;;;;;5037417;28;20582;-70
2023/12/01 00:31:01;;;;;;;77.87;39.47;;;;;;;;;;5037377;28;20171;-70
2023/12/01 00:33:27;;;;;;;79.40;39.67;;;;;;;;;;5037858;28;20472;-69
2023/12/01 00:35:53;;;;;;;77.73;40.23;;;;;;;;;;5036490;28;20194;-69
2023/12/01 00:38:19;;;;;;;73.13;37.23;;;;;;;;;;5036654;28;20421;-68
2023/12/01 00:40:45;;;;;;;77.20;37.90;;;;;;;;;;5036962;28;20175;-70
2023/12/01 00:43:12;;;;;;;68.17;37.67;;;;;;;;;;5035525;28;20484;-69
2023/12/01 00:45:38;;;;;;;73.10;37.17;;;;;;;;;;5037965;28;20237;-69
2023/12/01 00:48:04;;;;;;;74.00;40.77;;;;;;;;;;5035942;28;20920;-69
2023/12/01 00:50:30;;;;;;;75.77;41.30;;;;;;;;;;5037447;28;20203;-70
2023/12/01 00:52:56;;;;;;;77.10;41.33;;;;;;;;;;5037272;28;20488;-67
2023/12/01 00:55:22;;;;;;;83.93;42.30;;;;;;;;;;5035958;28;20226;-68
2023/12/01 00:57:53;;;;;;;78.63;43.40;;;;;;;;;;5036445;28;20555;-70
2023/12/01 01:00:19;;;;;;;81.40;42.83;;;;;;;;;;5037074;28;20183;-70
2023/12/01 01:02:45;;;;;;;74.50;41.83;;;;;;;;;;5035556;28;20855;-70
2023/12/01 01:05:11;;;;;;;75.57;41.00;;;;;;;;;;5036602;28;20410;-69
2023/12/01 01:07:37;;;;;;;78.40;41.97;;;;;;;;;;5035024;28;20179;-70
2023/12/01 01:10:03;;;;;;;81.03;40.90;;;;;;;;;;5035926;28;20178;-70
2023/12/01 01:12:29;;;;;;;73.83;39.83;;;;;;;;;;5036116;28;20214;-67
2023/12/01 01:14:56;;;;;;;78.57;40.83;;;;;;;;;;5034828;28;20426;-69
2023/12/01 01:17:22;;;;;;;74.47;38.73;;;;;;;;;;5035914;28;20185;-70
2023/12/01 01:19:48;;;;;;;74.90;39.23;;;;;;;;;;5035579;28;20481;-69
2023/12/01 01:22:14;;;;;;;73.00;38.07;;;;;;;;;;5036023;28;20254;-69
2023/12/01 01:24:40;;;;;;;66.20;36.77;;;;;;;;;;5034365;28;20853;-69
2023/12/01 01:27:06;;;;;;;64.30;35.13;;;;;;;;;;5035688;28;20259;-68
2023/12/01 01:29:32;;;;;;;70.10;37.00;;;;;;;;;;5036192;28;20450;-69
2023/12/01 01:31:59;;;;;;;62.00;34.17;;;;;;;;;;5036274;28;20241;-69
2023/12/01 01:34:27;;;;;;;54.60;29.83;;;;;;;;;;5036291;28;20402;-67
2023/12/01 01:36:53;;;;;;;57.90;33.07;;;;;;;;;;5034811;28;20471;-70
2023/12/01 01:39:19;;;;;;;58.97;32.37;;;;;;;;;;5036243;28;20410;-70
2023/12/01 01:41:45;;;;;;;65.53;34.50;;;;;;;;;;5036229;28;20201;-69
2023/12/01 01:44:10;;;;;;;64.03;34.80;;;;;;;;;;5035426;28;20576;-69
2023/12/01 01:46:37;;;;;;;66.57;35.07;;;;;;;;;;5035674;28;20541;-68
2023/12/01 01:49:05;;;;;;;56.97;32.43;;;;;;;;;;5035066;28;20182;-70
2023/12/01 01:51:31;;;;;;;49.80;31.30;;;;;;;;;;5034838;28;20438;-70
2023/12/01 01:53:57;;;;;;;56.20;31.10;;;;;;;;;;5035441;28;20410;-69
2023/12/01 01:56:23;;;;;;;47.50;29.00;;;;;;;;;;5034102;28;20420;-71
2023/12/01 01:58:51;;;;;;;42.97;28.03;;;;;;;;;;5036141;28;20266;-68
2023/12/01 02:01:17;;;;;;;43.83;27.57;;;;;;;;;;5035928;28;20175;-69
2023/12/01 02:03:43;;;;;;;51.53;29.43;;;;;;;;;;5034025;28;20465;-69
2023/12/01 02:06:09;;;;;;;50.90;30.50;;;;;;;;;;5035423;28;20406;-69
2023/12/01 02:08:35;;;;;;;46.47;28.63;;;;;;;;;;5034063;28;20183;-68
2023/12/01 02:11:01;;;;;;;44.17;27.77;;;;;;;;;;5035327;28;20183;-72
2023/12/01 02:13:30;;;;;;;47.50;28.37;;;;;;;;;;5034630;28;20495;-70
2023/12/01 02:15:56;;;;;;;48.80;27.33;;;;;;;;;;5033632;28;20189;-68
2023/12/01 02:18:22;;;;;;;49.33;29.73;;;;;;;;;;5034607;28;20179;-69
2023/12/01 02:20:48;;;;;;;54.53;30.80;;;;;;;;;;5034651;28;20183;-68
2023/12/01 02:23:14;;;;;;;54.33;30.83;;;;;;;;;;5035232;28;20210;-71
2023/12/01 02:25:40;;;;;;;49.27;30.60;;;;;;;;;;5033727;28;20232;-70
2023/12/01 02:28:06;;;;;;;51.10;30.50;;;;;;;;;;5033871;28;20273;-68
2023/12/01 02:30:32;;;;;;;53.37;30.63;;;;;;;;;;5035733;28;20172;-68
2023/12/01 02:32:58;;;;;;;48.03;30.73;;;;;;;;;;5035053;28;20657;-68
2023/12/01 02:35:29;;;;;;;52.47;30.00;;;;;;;;;;5034831;28;20417;-68
2023/12/01 02:37:55;;;;;;;50.27;30.40;;;;;;;;;;5034696;28;20540;-68
2023/12/01 02:40:22;;;;;;;57.30;31.07;;;;;;;;;;5033651;28;20453;-70
2023/12/01 02:42:52;;;;;;;62.63;33.43;;;;;;;;;;5033792;28;20466;-69
2023/12/01 02:45:18;;;;;;;61.40;31.60;;;;;;;;;;5034888;28;20410;-68
2023/12/01 02:47:47;;;;;;;47.83;30.07;;;;;;;;;;5034886;28;20954;-69
2023/12/01 02:50:13;;;;;;;47.87;27.93;;;;;;;;;;5036173;28;20410;-69
2023/12/01 02:52:41;;;;;;;50.53;27.23;;;;;;;;;;5034147;28;20458;-69
2023/12/01 02:55:08;;;;;;;51.83;28.70;;;;;;;;;;5034375;28;20486;-70
2023/12/01 02:57:34;;;;;;;51.97;30.60;;;;;;;;;;5033147;28;20191;-69
2023/12/01 03:00:00;;;;;;;49.90;28.47;;;;;;;;;;5034114;28;20265;-69
2023/12/01 03:02:28;;;;;;;50.37;29.57;;;;;;;;;;5036845;28;20529;-68
2023/12/01 03:04:54;;;;;;;49.33;29.77;;;;;;;;;;5039019;28;20262;-64
2023/12/01 03:07:20;;;;;;;50.43;29.67;;;;;;;;;;5038969;28;20171;-66
2023/12/01 03:09:46;;;;;;;53.53;30.57;;;;;;;;;;5038708;28;20410;-66
2023/12/01 03:12:12;;;;;;;51.77;30.07;;;;;;;;;;5038284;28;20210;-66
2023/12/01 03:14:38;;;;;;;51.63;29.90;;;;;;;;;;5038369;28;20271;-67
2023/12/01 03:17:04;;;;;;;55.20;31.90;;;;;;;;;;5038638;28;20205;-65
2023/12/01 03:19:30;;;;;;;51.00;29.47;;;;;;;;;;5039121;28;20190;-66
2023/12/01 03:21:56;;;;;;;53.90;30.80;;;;;;;;;;5037699;28;20285;-66
2023/12/01 03:24:22;;;;;;;56.37;30.83;;;;;;;;;;5037466;28;20221;-66
2023/12/01 03:26:48;;;;;;;50.43;29.43;;;;;;;;;;5037603;28;20649;-66
2023/12/01 03:29:15;;;;;;;53.67;31.60;;;;;;;;;;5038771;28;20417;-65
2023/12/01 03:31:41;;;;;;;54.40;29.80;;;;;;;;;;5038449;28;20707;-65
2023/12/01 03:34:07;;;;;;;51.63;31.07;;;;;;;;;;5038704;28;20405;-67
2023/12/01 03:36:33;;;;;;;53.47;31.50;;;;;;;;;;5036989;28;20210;-68
2023/12/01 03:38:59;;;;;;;52.87;29.70;;;;;;;;;;5038768;28;20232;-64
2023/12/01 03:41:25;;;;;;;54.70;30.73;;;;;;;;;;5037029;28;20445;-64
2023/12/01 03:43:51;;;;;;;56.03;31.43;;;;;;;;;;5038047;28;20199;-66
2023/12/01 03:46:17;;;;;;;55.23;30.43;;;;;;;;;;5038078;28;20671;-66
2023/12/01 03:48:43;;;;;;;61.10;32.13;;;;;;;;;;5037853;28;20413;-67
2023/12/01 03:51:11;;;;;;;57.63;30.30;;;;;;;;;;5036443;28;20281;-66
2023/12/01 03:53:37;;;;;;;54.60;30.40;;;;;;;;;;5037869;28;20183;-66
2023/12/01 03:56:04;;;;;;;54.23;29.57;;;;;;;;;;5035912;28;20649;-66
2023/12/01 03:58:30;;;;;;;57.67;29.77;;;;;;;;;;5036601;28;20179;-65
2023/12/01 04:00:56;;;;;;;52.10;28.90;;;;;;;;;;5036252;28;20422;-66
2023/12/01 04:03:24;;;;;;;51.70;29.80;;;;;;;;;;5036311;28;20209;-64
2023/12/01 04:05:50;;;;;;;49.93;29.00;;;;;;;;;;5037765;28;20242;-66
2023/12/01 04:08:16;;;;;;;54.23;29.87;;;;;;;;;;5037872;28;20406;-64
2023/12/01 04:10:42;;;;;;;50.63;28.33;;;;;;;;;;5038002;28;20410;-65
2023/12/01 04:13:09;;;;;;;50.07;29.10;;;;;;;;;;5036822;28;20546;-65
2023/12/01 04:15:39;;;;;;;46.10;25.83;;;;;;;;;;5037613;28;20532;-65
2023/12/01 04:18:08;;;;;;;49.00;28.20;;;;;;;;;;5036947;28;20922;-64
2023/12/01 04:20:40;;;;;;;39.93;23.33;;;;;;;;;;5036283;28;20425;-65
2023/12/01 04:23:09;;;;;;;38.60;24.47;;;;;;;;;;5038202;28;20461;-64
2023/12/01 04:25:35;;;;;;;46.53;26.97;;;;;;;;;;5039412;28;20855;-65
2023/12/01 04:28:01;;;;;;;43.17;25.57;;;;;;;;;;5040910;28;20417;-65
2023/12/01 04:30:27;;;;;;;42.10;25.23;;;;;;;;;;5041720;28;20410;-65
2023/12/01 04:32:54;;;;;;;44.30;25.53;;;;;;;;;;5040370;28;20253;-64
2023/12/01 04:35:20;;;;;;;43.07;25.73;;;;;;;;;;5037490;28;20193;-65
2023/12/01 04:37:46;;;;;;;40.43;22.53;;;;;;;;;;5039669;28;20414;-67
2023/12/01 04:40:16;;;;;;;42.53;23.57;;;;;;;;;;5039631;28;20414;-65
2023/12/01 04:42:43;;;;;;;38.13;22.70;;;;;;;;;;5041697;28;21002;-65
2023/12/01 04:45:11;;;;;;;35.00;21.13;;;;;;;;;;5037672;28;20410;-65
2023/12/01 04:47:37;;;;;;;39.13;22.70;;;;;;;;;;5037214;28;20442;-66
2023/12/01 04:50:12;;;;;;;40.27;22.87;;;;;;;;;;5037362;28;20414;-65
2023/12/01 04:52:38;;;;;;;38.93;25.33;;;;;;;;;;5035613;28;20449;-66
2023/12/01 04:55:04;;;;;;;44.63;25.47;;;;;;;;;;5036121;28;20760;-64
2023/12/01 04:57:30;;;;;;;44.27;26.33;;;;;;;;;;5036688;28;20264;-65
2023/12/01 04:59:56;;;;;;;35.27;23.97;;;;;;;;;;5036521;28;20418;-66
2023/12/01 05:02:23;;;;;;;40.63;24.73;;;;;;;;;;5035240;28;20210;-65
2023/12/01 05:04:50;;;;;;;42.20;26.03;;;;;;;;;;5034864;28;20905;-65
2023/12/01 05:07:16;;;;;;;37.83;24.67;;;;;;;;;;5036319;28;20410;-66
2023/12/01 05:09:42;;;;;;;40.63;25.03;;;;;;;;;;5036118;28;20780;-66
2023/12/01 05:12:08;;;;;;;41.70;25.43;;;;;;;;;;5034890;28;20218;-67
2023/12/01 05:14:34;;;;;;;42.57;25.40;;;;;;;;;;5036465;28;20180;-65
2023/12/01 05:17:00;;;;;;;46.93;27.97;;;;;;;;;;5034831;28;20671;-66
2023/12/01 05:19:27;;;;;;;43.07;25.60;;;;;;;;;;5036406;28;20641;-64
2023/12/01 05:21:53;;;;;;;44.30;27.07;;;;;;;;;;5037016;28;20202;-65
2023/12/01 05:24:19;;;;;;;46.93;26.90;;;;;;;;;;5036858;28;20848;-65
2023/12/01 05:26:45;;;;;;;42.83;25.13;;;;;;;;;;5035589;28;20172;-65
2023/12/01 05:29:13;;;;;;;46.50;26.13;;;;;;;;;;5036623;28;20186;-65
2023/12/01 05:31:39;;;;;;;40.90;26.27;;;;;;;;;;5036139;28;20194;-65
2023/12/01 05:34:05;;;;;;;45.00;27.13;;;;;;;;;;5035924;28;20416;-66
2023/12/01 05:36:31;;;;;;;44.00;26.40;;;;;;;;;;5036496;28;20900;-66
2023/12/01 05:38:57;;;;;;;43.67;25.90;;;;;;;;;;5035823;28;20191;-64
2023/12/01 05:41:23;;;;;;;41.33;23.43;;;;;;;;;;5035928;28;20825;-65
2023/12/01 05:43:49;;;;;;;43.60;24.10;;;;;;;;;;5034687;28;20289;-64
2023/12/01 05:46:15;;;;;;;39.77;23.67;;;;;;;;;;5036383;28;20237;-65
2023/12/01 05:48:41;;;;;;;38.27;23.13;;;;;;;;;;5035921;28;20179;-65
2023/12/01 05:51:07;;;;;;;36.60;22.73;;;;;;;;;;5035841;28;20184;-64
2023/12/01 05:53:34;;;;;;;40.80;23.60;;;;;;;;;;5036148;28;20940;-65
2023/12/01 05:56:00;;;;;;;38.60;23.43;;;;;;;;;;5035928;28;20413;-65
2023/12/01 05:58:26;;;;;;;33.47;20.50;;;;;;;;;;5035977;28;20413;-65
2023/12/01 06:00:52;;;;;;;35.13;20.83;;;;;;;;;;5035631;28;20468;-65
2023/12/01 06:03:19;;;;;;;36.70;21.47;;;;;;;;;;5035661;28;20293;-66
2023/12/01 06:05:48;;;;;;;35.80;20.87;;;;;;;;;;5035200;28;20174;-65
2023/12/01 06:08:14;;;;;;;34.97;19.80;;;;;;;;;;5035543;28;20421;-65
2023/12/01 06:10:40;;;;;;;33.77;19.63;;;;;;;;;;5035442;28;20402;-65
2023/12/01 06:13:07;;;;;;;34.80;22.27;;;;;;;;;;5034014;28;20870;-65
2023/12/01 06:15:33;;;;;;;36.43;21.73;;;;;;;;;;5035592;28;20202;-65
2023/12/01 06:18:00;;;;;;;36.17;20.63;;;;;;;;;;5035328;28;20752;-65
2023/12/01 06:20:27;;;;;;;38.43;23.20;;;;;;;;;;5035499;28;20190;-65
2023/12/01 06:22:56;;;;;;;40.77;23.50;;;;;;;;;;5035159;28;20461;-67
2023/12/01 06:25:29;;;;;;;41.70;22.53;;;;;;;;;;5034164;28;20441;-65
2023/12/01 06:28:02;;;;;;;39.07;22.87;;;;;;;;;;5035692;28;20787;-65
2023/12/01 06:30:29;;;;;;;41.67;22.90;;;;;;;;;;5035509;28;20409;-65
2023/12/01 06:32:55;;;;;;;39.00;22.50;;;;;;;;;;5035501;28;20794;-65
2023/12/01 06:35:22;;;;;;;38.00;22.53;;;;;;;;;;5035896;28;20955;-65
2023/12/01 06:37:48;;;;;;;37.60;24.20;;;;;;;;;;5034974;28;20409;-66
2023/12/01 06:40:18;;;;;;;37.80;22.23;;;;;;;;;;5034920;28;20497;-65
2023/12/01 06:42:45;;;;;;;42.43;23.47;;;;;;;;;;5035221;28;20468;-64
2023/12/01 06:45:11;;;;;;;39.47;24.13;;;;;;;;;;5035095;28;20171;-65
2023/12/01 06:47:38;;;;;;;39.43;22.60;;;;;;;;;;5035017;28;20406;-64
2023/12/01 06:50:05;;;;;;;38.60;21.57;;;;;;;;;;5057730;22;20489;-69
2023/12/01 06:52:31;;;;;;;37.87;22.67;;;;;;;;;;5034460;28;20896;-69
2023/12/01 06:54:57;;;;;;;38.63;22.47;;;;;;;;;;5034422;28;20210;-69
2023/12/01 06:57:23;;;;;;;42.50;23.63;;;;;;;;;;5034743;28;20908;-69
2023/12/01 06:59:49;;;;;;;40.40;22.23;;;;;;;;;;5016214;28;20251;-69
2023/12/01 07:02:17;;;;;;;39.80;23.00;;;;;;;;;;5033899;28;20175;-69
2023/12/01 07:04:44;;;;;;;39.60;23.10;;;;;;;;;;5033479;28;20254;-69
2023/12/01 07:07:12;;;;;;;37.40;20.23;;;;;;;;;;5033944;28;20888;-69
2023/12/01 07:09:40;;;;;;;39.77;23.10;;;;;;;;;;5033871;28;20402;-69
2023/12/01 07:12:06;;;;;;;39.50;23.90;;;;;;;;;;5016030;28;20446;-69
2023/12/01 07:14:33;;;;;;;39.33;22.37;;;;;;;;;;5033536;28;20505;-69
2023/12/01 07:16:59;;;;;;;37.57;21.90;;;;;;;;;;5033905;28;20489;-69
2023/12/01 07:19:25;;;;;;;37.93;22.93;;;;;;;;;;5016042;28;20864;-69
2023/12/01 07:21:51;;;;;;;41.37;23.17;;;;;;;;;;5015995;28;20229;-69
2023/12/01 07:24:18;;;;;;;43.83;23.47;;;;;;;;;;5033527;28;20207;-69
2023/12/01 07:26:44;;;;;;;35.47;20.90;;;;;;;;;;5033496;28;20705;-69
2023/12/01 07:29:10;;;;;;;39.03;21.57;;;;;;;;;;5016103;28;20450;-70
2023/12/01 07:31:37;;;;;;;35.90;22.60;;;;;;;;;;5033572;28;20203;-69
2023/12/01 07:34:03;;;;;;;32.60;19.17;;;;;;;;;;5034366;28;20520;-69
2023/12/01 07:36:30;;;;;;;42.93;24.57;;;;;;;;;;5015827;28;20426;-69
2023/12/01 07:38:55;;;;;;;35.10;21.33;;;;;;;;;;5033560;28;20846;-69
2023/12/01 07:41:21;;;;;;;42.93;23.67;;;;;;;;;;5016109;28;20528;-69
2023/12/01 07:43:47;;;;;;;39.27;23.40;;;;;;;;;;5033524;28;20199;-71
2023/12/01 07:46:13;;;;;;;41.50;22.53;;;;;;;;;;5016989;28;20804;-69
2023/12/01 07:48:40;;;;;;;37.63;21.97;;;;;;;;;;5015934;28;20183;-69
2023/12/01 07:51:06;;;;;;;40.07;23.10;;;;;;;;;;5036761;28;20207;-69
2023/12/01 07:53:32;;;;;;;38.47;22.60;;;;;;;;;;5019282;28;20422;-69
2023/12/01 07:55:59;;;;;;;40.13;23.70;;;;;;;;;;5037538;28;20518;-69
2023/12/01 07:58:25;;;;;;;41.43;23.10;;;;;;;;;;5037465;28;20472;-69
2023/12/01 08:00:52;;;;;;;40.33;23.43;;;;;;;;;;5037133;28;20433;-69
2023/12/01 08:03:18;;;;;;;43.60;24.23;;;;;;;;;;5019305;28;21036;-69
2023/12/01 08:05:44;;;;;;;39.47;22.90;;;;;;;;;;5037323;28;20402;-69
2023/12/01 08:08:11;;;;;;;38.40;23.17;;;;;;;;;;5019456;28;20920;-70
2023/12/01 08:10:36;;;;;;;35.97;19.70;;;;;;;;;;5037105;28;20440;-69
2023/12/01 08:13:02;;;;;;;38.37;20.30;;;;;;;;;;5036821;28;20414;-69
2023/12/01 08:15:29;;;;;;;35.33;19.23;;;;;;;;;;5036826;28;20179;-69
2023/12/01 08:17:55;;;;;;;36.73;21.33;;;;;;;;;;5024515;28;20197;-69
2023/12/01 08:20:20;;;;;;;37.77;21.33;;;;;;;;;;5044401;28;20501;-68
2023/12/01 08:22:47;;;;;;;41.30;21.73;;;;;;;;;;5026467;28;20229;-68
2023/12/01 08:25:13;;;;;;;45.47;25.60;;;;;;;;;;5042331;28;20171;-68
2023/12/01 08:27:40;;;;;;;43.63;23.83;;;;;;;;;;5036719;28;20756;-68
2023/12/01 08:30:07;;;;;;;45.80;23.83;;;;;;;;;;5036549;28;20457;-68
2023/12/01 08:32:33;;;;;;;45.30;25.20;;;;;;;;;;5019151;28;20441;-68
2023/12/01 08:34:59;;;;;;;55.10;28.00;;;;;;;;;;5036544;28;20900;-68
2023/12/01 08:37:25;;;;;;;52.10;27.97;;;;;;;;;;5019012;28;20179;-68
2023/12/01 08:39:51;;;;;;;52.63;28.27;;;;;;;;;;5019470;28;20194;-68
2023/12/01 08:42:18;;;;;;;58.37;31.73;;;;;;;;;;5020609;28;20410;-68
2023/12/01 08:44:44;;;;;;;60.70;28.90;;;;;;;;;;5038415;28;20253;-70
2023/12/01 08:47:11;;;;;;;63.27;31.87;;;;;;;;;;5039921;28;20778;-68
2023/12/01 08:49:37;;;;;;;60.07;31.90;;;;;;;;;;5049814;28;20419;-71
2023/12/01 08:52:03;;;;;;;50.40;25.97;;;;;;;;;;5050641;28;20429;-69
2023/12/01 08:54:29;;;;;;;50.10;26.07;;;;;;;;;;5049261;28;20410;-68
2023/12/01 08:56:56;;;;;;;43.80;23.33;;;;;;;;;;5049455;28;20414;-69
2023/12/01 08:59:22;;;;;;;43.30;22.63;;;;;;;;;;5036338;28;20229;-70
2023/12/01 09:01:48;;;;;;;50.17;25.67;;;;;;;;;;5017689;28;20446;-69
2023/12/01 09:04:14;;;;;;;44.37;25.07;;;;;;;;;;5035719;28;20228;-69
2023/12/01 09:06:40;;;;;;;44.27;24.10;;;;;;;;;;5035595;28;20282;-69
2023/12/01 09:09:06;;;;;;;43.53;24.50;;;;;;;;;;5017957;28;20175;-69
2023/12/01 09:11:32;;;;;;;40.03;23.97;;;;;;;;;;5036747;28;20229;-69
2023/12/01 09:13:58;;;;;;;43.80;23.53;;;;;;;;;;5035976;28;20179;-69
2023/12/01 09:16:25;;;;;;;42.47;24.43;;;;;;;;;;5036912;28;20414;-69
2023/12/01 09:18:51;;;;;;;42.23;24.07;;;;;;;;;;5035745;28;20458;-69
2023/12/01 09:21:17;;;;;;;41.47;24.27;;;;;;;;;;5036126;28;20458;-69
2023/12/01 09:23:44;;;;;;;47.37;25.50;;;;;;;;;;5018510;28;20468;-69
2023/12/01 09:26:17;;;;;;;43.93;25.23;;;;;;;;;;5018464;28;20414;-70
2023/12/01 09:28:43;;;;;;;45.30;25.97;;;;;;;;;;5022064;28;20167;-69
2023/12/01 09:31:10;;;;;;;39.90;23.80;;;;;;;;;;5042973;28;20426;-69
2023/12/01 09:33:37;;;;;;;41.50;23.10;;;;;;;;;;5039769;28;20425;-69
2023/12/01 09:36:04;;;;;;;35.83;21.57;;;;;;;;;;5039390;28;20410;-69
2023/12/01 09:38:30;;;;;;;40.00;24.03;;;;;;;;;;5019776;28;20425;-69
2023/12/01 09:40:56;;;;;;;40.27;22.53;;;;;;;;;;5038523;28;20437;-70
2023/12/01 09:43:23;;;;;;;38.77;22.30;;;;;;;;;;5019145;28;20823;-69
2023/12/01 09:45:53;;;;;;;38.37;22.53;;;;;;;;;;5037038;28;20409;-69
2023/12/01 09:48:20;;;;;;;43.57;24.07;;;;;;;;;;5021009;28;20504;-69
2023/12/01 09:50:49;;;;;;;37.50;21.87;;;;;;;;;;5041458;28;20450;-69
2023/12/01 09:53:16;;;;;;;34.53;19.70;;;;;;;;;;5024873;28;20506;-71
2023/12/01 09:55:42;;;;;;;42.97;23.93;;;;;;;;;;5027860;28;20414;-69
2023/12/01 09:58:10;;;;;;;40.77;23.33;;;;;;;;;;5027355;28;20921;-70
2023/12/01 10:00:36;;;;;;;38.13;21.67;;;;;;;;;;5041129;28;20461;-71
2023/12/01 10:03:02;;;;;;;33.97;21.40;;;;;;;;;;5040445;28;20462;-71
2023/12/01 10:05:32;;;;;;;40.27;23.73;;;;;;;;;;5036848;28;20185;-69
2023/12/01 10:07:59;;;;;;;35.13;20.10;;;;;;;;;;5034521;28;20222;-70
2023/12/01 10:10:26;;;;;;;38.07;21.63;;;;;;;;;;5016657;28;20823;-69
2023/12/01 10:12:56;;;;;;;38.10;22.10;;;;;;;;;;5016220;28;20422;-69
2023/12/01 10:15:24;;;;;;;40.13;23.23;;;;;;;;;;5034214;28;20416;-70
2023/12/01 10:17:50;;;;;;;39.10;22.23;;;;;;;;;;5016576;28;20513;-69
2023/12/01 10:20:21;;;;;;;36.60;20.70;;;;;;;;;;5034154;28;20433;-69
2023/12/01 10:22:50;;;;;;;36.60;21.47;;;;;;;;;;5034420;28;20822;-70
2023/12/01 10:25:16;;;;;;;42.23;23.77;;;;;;;;;;5016522;28;20467;-69
2023/12/01 10:27:43;;;;;;;48.03;24.90;;;;;;;;;;5034883;28;20413;-69
2023/12/01 10:30:13;;;;;;;40.90;23.60;;;;;;;;;;5034654;28;20859;-70
2023/12/01 10:32:41;;;;;;;44.00;25.43;;;;;;;;;;5034340;28;20450;-70
2023/12/01 10:35:07;;;;;;;43.67;23.73;;;;;;;;;;5016274;28;20433;-70
2023/12/01 10:37:33;;;;;;;40.20;23.50;;;;;;;;;;5033810;28;20417;-70
2023/12/01 10:40:05;;;;;;;44.80;25.50;;;;;;;;;;5033896;28;20460;-70
2023/12/01 10:42:32;;;;;;;40.23;22.83;;;;;;;;;;5034241;28;20480;-70
2023/12/01 10:45:00;;;;;;;35.63;21.97;;;;;;;;;;5033845;28;20449;-70
2023/12/01 10:47:26;;;;;;;32.40;21.23;;;;;;;;;;5034028;28;20437;-70
2023/12/01 10:49:55;;;;;;;41.73;22.77;;;;;;;;;;5016026;28;20410;-70
2023/12/01 10:52:21;;;;;;;36.07;21.03;;;;;;;;;;5016192;28;20187;-70
2023/12/01 10:54:47;;;;;;;34.60;20.77;;;;;;;;;;5034031;28;20432;-70
2023/12/01 10:57:31;;;;;;;34.57;20.57;;;;;;;;;;5034082;28;20416;-70
2023/12/01 11:00:00;;;;;;;34.93;21.20;;;;;;;;;;5033756;28;20497;-70
2023/12/01 11:02:26;;;;;;;28.53;18.27;;;;;;;;;;5034005;28;20398;-70
2023/12/01 11:04:52;;;;;;;35.13;20.30;;;;;;;;;;5033494;28;20784;-70
2023/12/01 11:07:30;;;;;;;35.43;21.77;;;;;;;;;;5015793;28;20414;-70
2023/12/01 11:10:16;;;;;;;36.03;20.87;;;;;;;;;;5015897;28;20732;-69
2023/12/01 11:12:57;;;;;;;36.30;21.63;;;;;;;;;;4993822;28;20422;-70
2023/12/01 11:15:25;;;;;;;34.30;21.63;;;;;;;;;;5033777;28;20420;-69
2023/12/01 11:17:51;;;;;;;35.10;21.03;;;;;;;;;;5033795;28;20183;-69
2023/12/01 11:20:31;;;;;;;33.00;20.27;;;;;;;;;;5033743;28;20943;-70
2023/12/01 11:23:09;;;;;;;35.00;21.27;;;;;;;;;;5035100;28;20480;-69
2023/12/01 11:25:46;;;;;;;35.97;20.57;;;;;;;;;;5021989;28;20449;-69
2023/12/01 11:31:08;;;;;;;35.10;20.73;;;;;;;;;;5037956;28;20916;-69
2023/12/01 11:33:34;;;;;;;33.27;20.37;;;;;;;;;;5037539;28;20399;-69
2023/12/01 11:36:19;;;;;;;33.50;19.40;;;;;;;;;;5037664;28;20501;-69
2023/12/01 11:39:08;;;;;;;33.37;20.27;;;;;;;;;;5037447;28;20421;-69
2023/12/01 11:41:34;;;;;;;33.53;21.37;;;;;;;;;;5037555;28;20434;-68
2023/12/01 11:44:07;;;;;;;34.80;21.17;;;;;;;;;;5037331;28;20507;-68
2023/12/01 11:46:39;;;;;;;36.30;20.17;;;;;;;;;;5019810;28;20535;-67
2023/12/01 11:49:06;;;;;;;35.03;21.87;;;;;;;;;;5037178;28;20414;-68
2023/12/01 11:51:32;;;;;;;32.87;19.93;;;;;;;;;;5037219;28;20481;-68
2023/12/01 11:53:58;;;;;;;38.00;21.57;;;;;;;;;;5019860;28;20505;-69
2023/12/01 11:56:28;;;;;;;39.23;21.90;;;;;;;;;;5020211;28;20422;-69
2023/12/01 11:58:54;;;;;;;31.13;21.07;;;;;;;;;;5058049;28;20426;-69
2023/12/01 12:01:22;;;;;;;34.83;19.60;;;;;;;;;;5041225;28;20449;-69
2023/12/01 12:03:53;;;;;;;35.13;20.67;;;;;;;;;;5057569;28;20433;-69
2023/12/01 12:06:20;;;;;;;30.93;19.30;;;;;;;;;;5039326;28;20536;-69
2023/12/01 12:08:47;;;;;;;35.57;20.37;;;;;;;;;;5040246;28;20425;-68
2023/12/01 12:11:13;;;;;;;37.10;21.60;;;;;;;;;;5057206;28;20440;-70
2023/12/01 12:13:39;;;;;;;36.30;21.70;;;;;;;;;;5038637;28;20441;-69
2023/12/01 12:16:06;;;;;;;33.53;19.90;;;;;;;;;;5056792;28;20414;-70
2023/12/01 12:18:32;;;;;;;33.83;20.40;;;;;;;;;;5039629;28;20418;-69
2023/12/01 12:21:05;;;;;;;38.77;21.30;;;;;;;;;;5052108;28;20924;-69
2023/12/01 12:23:31;;;;;;;34.30;19.40;;;;;;;;;;5019810;28;20561;-67
2023/12/01 12:26:13;;;;;;;40.30;22.43;;;;;;;;;;5037531;28;20414;-69
2023/12/01 12:28:39;;;;;;;43.60;24.63;;;;;;;;;;5019665;28;20175;-69
2023/12/01 12:31:05;;;;;;;37.33;22.37;;;;;;;;;;5019285;28;20460;-69
2023/12/01 12:33:31;;;;;;;38.90;22.60;;;;;;;;;;5019980;28;20270;-68
2023/12/01 12:35:57;;;;;;;35.23;20.83;;;;;;;;;;5036610;28;20472;-69
2023/12/01 12:38:24;;;;;;;38.10;22.33;;;;;;;;;;5019722;28;20187;-69
2023/12/01 12:40:50;;;;;;;40.57;22.30;;;;;;;;;;5036963;28;20257;-69
2023/12/01 12:43:20;;;;;;;42.33;22.80;;;;;;;;;;5019355;28;20519;-69
2023/12/01 12:45:45;;;;;;;37.57;22.07;;;;;;;;;;5036984;28;20176;-69
2023/12/01 12:48:12;;;;;;;34.27;22.07;;;;;;;;;;5018681;28;20422;-68
2023/12/01 12:50:46;;;;;;;32.00;19.63;;;;;;;;;;5036326;28;20297;-70
2023/12/01 12:53:12;;;;;;;33.50;19.93;;;;;;;;;;5018464;28;20491;-69
2023/12/01 12:55:38;;;;;;;28.70;17.53;;;;;;;;;;5018584;28;20845;-69
2023/12/01 12:58:04;;;;;;;28.53;17.33;;;;;;;;;;5036447;28;20555;-69
2023/12/01 13:00:30;;;;;;;24.90;15.97;;;;;;;;;;5036771;28;20434;-69
2023/12/01 13:02:56;;;;;;;25.43;16.37;;;;;;;;;;5018563;28;20202;-69
2023/12/01 13:05:22;;;;;;;27.33;16.97;;;;;;;;;;5020674;28;20183;-69
2023/12/01 13:07:48;;;;;;;28.13;16.97;;;;;;;;;;5019054;28;20420;-69
2023/12/01 13:10:14;;;;;;;26.97;17.43;;;;;;;;;;5036026;28;20196;-69
2023/12/01 13:12:40;;;;;;;27.77;17.60;;;;;;;;;;5036094;28;20190;-69
2023/12/01 13:15:06;;;;;;;28.93;17.30;;;;;;;;;;5037510;28;20184;-69
2023/12/01 13:17:32;;;;;;;28.50;17.93;;;;;;;;;;5018519;28;20198;-69
2023/12/01 13:19:59;;;;;;;31.47;18.27;;;;;;;;;;5036734;28;20438;-69
2023/12/01 13:22:24;;;;;;;33.73;18.53;;;;;;;;;;5036254;28;20182;-69
2023/12/01 13:24:50;;;;;;;24.90;15.77;;;;;;;;;;5036278;28;20916;-70
2023/12/01 13:27:17;;;;;;;30.53;17.87;;;;;;;;;;5018085;28;20178;-69
2023/12/01 13:29:43;;;;;;;30.60;18.27;;;;;;;;;;5020413;28;20472;-69
2023/12/01 13:32:09;;;;;;;31.33;19.30;;;;;;;;;;5037311;28;20413;-69
2023/12/01 13:34:35;;;;;;;32.17;18.50;;;;;;;;;;5038534;28;20679;-69
2023/12/01 13:37:02;;;;;;;32.77;20.17;;;;;;;;;;5018485;28;20260;-69
2023/12/01 13:39:28;;;;;;;32.87;19.77;;;;;;;;;;5036431;28;20175;-69
2023/12/01 13:41:54;;;;;;;31.03;18.73;;;;;;;;;;5036354;28;20452;-69
2023/12/01 13:44:20;;;;;;;29.57;18.87;;;;;;;;;;5035665;28;20285;-69
2023/12/01 13:46:46;;;;;;;30.20;19.10;;;;;;;;;;5017127;28;20920;-69
2023/12/01 13:49:16;;;;;;;32.60;18.27;;;;;;;;;;5035729;28;20500;-69
2023/12/01 13:51:42;;;;;;;29.30;17.93;;;;;;;;;;5035436;28;20294;-69
2023/12/01 13:54:10;;;;;;;31.60;18.10;;;;;;;;;;5036319;28;20445;-69
2023/12/01 13:56:36;;;;;;;27.23;14.90;;;;;;;;;;5019387;28;20183;-68
2023/12/01 13:59:02;;;;;;;30.77;18.13;;;;;;;;;;5037939;28;20418;-69
2023/12/01 14:01:28;;;;;;;29.90;18.73;;;;;;;;;;5018094;28;20199;-69
2023/12/01 14:03:54;;;;;;;30.80;17.83;;;;;;;;;;5017472;28;20470;-69
2023/12/01 14:06:20;;;;;;;28.53;17.20;;;;;;;;;;5018858;28;20410;-69
2023/12/01 14:08:46;;;;;;;30.07;18.37;;;;;;;;;;5018105;28;20175;-69
2023/12/01 14:11:13;;;;;;;30.93;17.80;;;;;;;;;;5025849;28;20436;-69
2023/12/01 14:13:40;;;;;;;28.07;17.03;;;;;;;;;;5047845;28;20186;-69
2023/12/01 14:16:06;;;;;;;31.67;16.83;;;;;;;;;;5028471;28;20421;-69
2023/12/01 14:18:35;;;;;;;28.90;17.87;;;;;;;;;;5041867;28;20413;-69